Terminal Aerodrome Forecast
Issued by NWS

Current Version | Previous Version | Graphics & Text | Print | Product List | Glossary On
Versions: 1 2 3 4 5 6 7 8 9 10 11 12 13 14 15 16 17 18 19 20 21 22 23 24 25 26
711
FTUS41 KILN 180404 AAA
TAFLUK
TAF AMD
KLUK 180404Z 1804/1824 00000KT 1SM BR FEW050 OVC100
     FM181200 VRB03KT P6SM BKN100
     FM181700 21004KT P6SM VCSH SCT050 BKN080=

USA.gov is the U.S. government's official web portal to all federal, state and local government web resources and services.